CNF9 weather

Niagara South Airport
Niagara Falls, Ontario, Canada

Public forecast

Using degrees Celsius for public forecast. Weather courtesy of forecast.io.

Closest aviation weather report (METAR) to Niagara South Airport

Closest report is Niagara Falls International Airport, 8.3 nm (15.3 km) NE. Retrieved 2019/10/21 15:53 UTC (36 minutes ago):

KIAG 211553Z 09012KT 10SM CLR 17/08 A3001 RMK AO2 PRESFR SLP165 T01720078

Closest aviation forecast (TAF) to Niagara South Airport

Closest forecast is Niagara Falls International Airport, 8.3 nm (15.3 km) NE. Retrieved 2019/10/21 12:22 UTC (4 hours ago):

TAF KIAG 211120Z 2112/2212 09006KT P6SM SCT250 FM211500 09010KT P6SM BKN250 FM211800 10012G18KT P6SM BKN250 FM220100 13012G18KT P6SM SCT140 OVC200 WS015/17040KT FM220600 16014G20KT P6SM OVC060 FM221000 17014KT P6SM VCSH OVC040